createdAt,value
2023-03-19T00:00:50.997Z,12.60
2023-03-19T00:03:18.311Z,12.60
2023-03-19T00:05:54.777Z,12.60
2023-03-19T00:08:22.956Z,12.70
2023-03-19T00:10:51.168Z,12.60
2023-03-19T00:13:18.950Z,12.70
2023-03-19T00:15:47.477Z,12.70
2023-03-19T00:18:15.028Z,12.70
2023-03-19T00:20:42.943Z,12.70
2023-03-19T00:23:10.253Z,12.70
2023-03-19T00:25:37.507Z,12.70
2023-03-19T00:28:04.998Z,12.70
2023-03-19T00:30:32.383Z,12.70
2023-03-19T00:32:59.775Z,12.70
2023-03-19T00:35:27.262Z,12.60
2023-03-19T00:37:55.439Z,12.60
2023-03-19T00:40:22.732Z,12.60
2023-03-19T00:42:50.348Z,12.60
2023-03-19T00:45:18.552Z,12.60
2023-03-19T00:47:46.242Z,12.50
2023-03-19T00:50:14.038Z,12.50
2023-03-19T00:52:41.872Z,12.50
2023-03-19T00:55:09.723Z,12.50
2023-03-19T00:57:37.092Z,12.50
2023-03-19T01:00:04.976Z,12.50
2023-03-19T01:02:32.676Z,12.50
2023-03-19T01:05:00.101Z,12.50
2023-03-19T01:07:27.585Z,12.50
2023-03-19T01:09:56.751Z,12.50
2023-03-19T01:12:24.059Z,12.50
2023-03-19T01:14:51.326Z,12.50
2023-03-19T01:17:19.082Z,12.50
2023-03-19T01:19:46.812Z,12.50
2023-03-19T01:22:16.345Z,12.50
2023-03-19T01:24:48.084Z,12.50
2023-03-19T01:27:15.768Z,12.50
2023-03-19T01:29:43.761Z,12.50
2023-03-19T01:32:23.889Z,12.50
2023-03-19T01:35:10.120Z,12.60
2023-03-19T01:37:38.877Z,12.60
2023-03-19T01:40:13.432Z,12.60
2023-03-19T01:43:12.729Z,12.60
2023-03-19T01:45:51.074Z,12.60
2023-03-19T01:48:54.317Z,12.70
2023-03-19T01:51:27.396Z,12.70
2023-03-19T01:54:29.098Z,12.70
2023-03-19T01:57:33.056Z,12.70
2023-03-19T02:00:23.495Z,12.70
2023-03-19T02:02:56.233Z,12.80
2023-03-19T02:05:44.410Z,12.80
2023-03-19T02:08:17.493Z,12.80
2023-03-19T02:10:48.077Z,12.70
2023-03-19T02:13:16.084Z,12.80
2023-03-19T02:15:43.603Z,12.80
2023-03-19T02:18:11.394Z,12.80
2023-03-19T02:20:58.039Z,12.80
2023-03-19T02:23:37.367Z,12.80
2023-03-19T02:26:16.426Z,12.90
2023-03-19T02:28:46.382Z,12.80
2023-03-19T02:31:18.513Z,12.90
2023-03-19T02:33:56.920Z,12.90
2023-03-19T02:36:26.285Z,13.00
2023-03-19T02:38:54.798Z,13.00
2023-03-19T02:41:22.420Z,13.00
2023-03-19T02:43:51.304Z,13.10
2023-03-19T02:46:18.601Z,13.10
2023-03-19T02:48:46.592Z,13.10
2023-03-19T02:51:13.989Z,13.10
2023-03-19T02:53:41.258Z,13.20
2023-03-19T02:56:08.865Z,13.20
2023-03-19T02:58:36.609Z,13.20
2023-03-19T03:01:04.556Z,13.20
2023-03-19T03:03:32.707Z,13.20
2023-03-19T03:06:00.403Z,13.20
2023-03-19T03:08:28.419Z,13.30
2023-03-19T03:10:55.981Z,13.30
2023-03-19T03:13:23.263Z,13.30
2023-03-19T03:15:51.820Z,13.30
2023-03-19T03:18:19.705Z,13.30
2023-03-19T03:20:47.580Z,13.40
2023-03-19T03:23:14.817Z,13.30
2023-03-19T03:25:42.127Z,13.40
2023-03-19T03:28:09.557Z,13.30
2023-03-19T03:30:36.942Z,13.30
2023-03-19T03:33:04.368Z,13.30
2023-03-19T03:35:32.611Z,13.30
2023-03-19T03:38:00.080Z,13.40
2023-03-19T03:40:27.648Z,13.40
2023-03-19T03:42:55.827Z,13.40
2023-03-19T03:45:23.396Z,13.40
2023-03-19T03:47:52.589Z,13.40
2023-03-19T03:50:19.862Z,13.40
2023-03-19T03:52:49.424Z,13.40
2023-03-19T03:55:16.856Z,13.40
2023-03-19T03:57:44.136Z,13.40
2023-03-19T04:00:12.709Z,13.40
2023-03-19T04:02:44.656Z,13.40
2023-03-19T04:05:15.765Z,13.40
2023-03-19T04:07:43.338Z,13.40
2023-03-19T04:10:12.070Z,13.40
2023-03-19T04:12:40.118Z,13.40
2023-03-19T04:15:11.200Z,13.40
2023-03-19T04:17:40.680Z,13.40
2023-03-19T04:20:09.679Z,13.40
2023-03-19T04:22:36.940Z,13.40
2023-03-19T04:25:05.131Z,13.40
2023-03-19T04:27:32.686Z,13.40
2023-03-19T04:30:00.155Z,13.40
2023-03-19T04:32:28.259Z,13.50
2023-03-19T04:34:55.701Z,13.50
2023-03-19T04:37:23.165Z,13.40
2023-03-19T04:39:51.779Z,13.40
2023-03-19T04:42:19.443Z,13.40
2023-03-19T04:44:56.013Z,13.50
2023-03-19T04:47:24.296Z,13.50
2023-03-19T04:49:55.617Z,13.40
2023-03-19T04:52:25.022Z,13.50
2023-03-19T04:54:52.440Z,13.50
2023-03-19T04:57:20.585Z,13.50
2023-03-19T04:59:49.381Z,13.40
2023-03-19T05:02:17.387Z,13.50
2023-03-19T05:04:45.429Z,13.50
2023-03-19T05:07:15.280Z,13.40
2023-03-19T05:09:44.223Z,13.40
2023-03-19T05:12:12.512Z,13.40
2023-03-19T05:14:49.705Z,13.40
2023-03-19T05:17:22.996Z,13.40
2023-03-19T05:20:00.830Z,13.40
2023-03-19T05:22:28.223Z,13.40
2023-03-19T05:24:56.985Z,13.40
2023-03-19T05:27:25.524Z,13.40
2023-03-19T05:30:03.765Z,13.40
2023-03-19T05:32:44.426Z,13.40
2023-03-19T05:35:20.224Z,13.40
2023-03-19T05:37:47.876Z,13.30
2023-03-19T05:40:16.710Z,13.30
2023-03-19T05:42:46.533Z,13.30
2023-03-19T05:45:17.508Z,13.30
2023-03-19T05:47:50.338Z,13.30
2023-03-19T05:50:19.586Z,13.30
2023-03-19T05:53:16.359Z,13.30
2023-03-19T05:55:53.230Z,13.20
2023-03-19T05:58:20.978Z,13.30
2023-03-19T06:00:49.059Z,13.30
2023-03-19T06:03:16.916Z,13.20
2023-03-19T06:05:54.851Z,13.20
2023-03-19T06:08:33.178Z,13.20
2023-03-19T06:11:07.105Z,13.20
2023-03-19T06:13:35.637Z,13.20
2023-03-19T06:16:08.347Z,13.20
2023-03-19T06:18:39.366Z,13.20
2023-03-19T06:21:12.333Z,13.20
2023-03-19T06:23:39.660Z,13.20
2023-03-19T06:26:08.497Z,13.20
2023-03-19T06:28:51.287Z,13.20
2023-03-19T06:31:19.614Z,13.10
2023-03-19T06:34:07.523Z,13.10
2023-03-19T06:36:40.905Z,13.10
2023-03-19T06:39:11.103Z,13.10
2023-03-19T06:41:38.456Z,13.10
2023-03-19T06:44:17.111Z,13.10
2023-03-19T06:46:44.688Z,13.10
2023-03-19T06:49:12.312Z,13.10
2023-03-19T06:51:39.907Z,13.10
2023-03-19T06:54:07.404Z,13.10
2023-03-19T06:56:34.759Z,13.20
2023-03-19T06:59:02.434Z,13.20
2023-03-19T07:01:29.780Z,13.20
2023-03-19T07:03:57.540Z,13.20
2023-03-19T07:06:24.958Z,13.30
2023-03-19T07:08:52.352Z,13.30
2023-03-19T07:11:19.675Z,13.30
2023-03-19T07:13:47.242Z,13.40
2023-03-19T07:16:14.645Z,13.40
2023-03-19T07:18:42.063Z,13.40
2023-03-19T07:21:09.331Z,13.40
2023-03-19T07:23:36.618Z,13.50
2023-03-19T07:26:03.933Z,13.50
2023-03-19T07:28:31.932Z,13.50
2023-03-19T07:30:59.292Z,13.50
2023-03-19T07:33:26.718Z,13.60
2023-03-19T07:35:53.966Z,13.60
2023-03-19T07:38:21.413Z,13.60
2023-03-19T07:41:01.476Z,13.70
2023-03-19T07:43:29.461Z,13.70
2023-03-19T07:45:56.909Z,13.80
2023-03-19T07:48:24.336Z,13.90
2023-03-19T07:50:52.279Z,14.10
2023-03-19T07:53:19.901Z,14.20
2023-03-19T07:55:48.740Z,14.30
2023-03-19T07:58:16.925Z,14.50
2023-03-19T08:00:45.370Z,14.60
2023-03-19T08:03:13.257Z,14.70
2023-03-19T08:05:40.982Z,14.80
2023-03-19T08:08:08.941Z,14.80
2023-03-19T08:10:38.298Z,14.90
2023-03-19T08:13:06.231Z,15.00
2023-03-19T08:15:33.934Z,15.20
2023-03-19T08:18:03.905Z,15.20
2023-03-19T08:20:32.253Z,15.30
2023-03-19T08:22:59.760Z,15.40
2023-03-19T08:25:27.864Z,15.70
2023-03-19T08:27:55.211Z,15.80
2023-03-19T08:30:22.691Z,15.90
2023-03-19T08:32:52.546Z,15.90
2023-03-19T08:35:20.990Z,15.80
2023-03-19T08:37:48.300Z,15.80
2023-03-19T08:40:15.988Z,15.80
2023-03-19T08:42:45.278Z,15.80
2023-03-19T08:45:14.604Z,15.80
2023-03-19T08:47:42.818Z,15.80
2023-03-19T08:50:10.823Z,15.70
2023-03-19T08:52:38.632Z,15.70
2023-03-19T08:55:07.586Z,15.70
2023-03-19T08:57:35.721Z,15.70
2023-03-19T09:00:05.870Z,15.60
2023-03-19T09:02:33.334Z,15.60
2023-03-19T09:05:00.789Z,15.60
2023-03-19T09:07:28.189Z,15.60
2023-03-19T09:09:55.601Z,15.60
2023-03-19T09:12:22.997Z,15.60
2023-03-19T09:14:50.552Z,15.60
2023-03-19T09:17:18.396Z,15.60
2023-03-19T09:19:45.835Z,15.60
2023-03-19T09:22:13.207Z,15.60
2023-03-19T09:24:40.871Z,15.70
2023-03-19T09:27:08.325Z,15.70
2023-03-19T09:29:35.700Z,15.70
2023-03-19T09:32:03.047Z,15.70
2023-03-19T09:34:30.503Z,15.70
2023-03-19T09:36:57.893Z,15.70
2023-03-19T09:39:25.173Z,15.80
2023-03-19T09:42:17.183Z,15.70
2023-03-19T09:44:46.760Z,15.70
2023-03-19T09:47:33.008Z,15.70
2023-03-19T09:50:11.259Z,15.70
2023-03-19T09:52:41.595Z,15.60
2023-03-19T09:55:23.910Z,15.60
2023-03-19T09:57:56.514Z,15.60
2023-03-19T10:00:26.074Z,15.60
2023-03-19T10:03:16.831Z,15.60
2023-03-19T10:06:27.741Z,15.60
2023-03-19T10:09:19.460Z,15.60
2023-03-19T10:12:01.482Z,15.50
2023-03-19T10:14:49.976Z,15.50
2023-03-19T10:17:22.941Z,15.50
2023-03-19T10:20:10.726Z,15.50
2023-03-19T10:22:49.246Z,15.50
2023-03-19T10:25:23.590Z,15.40
2023-03-19T10:28:00.734Z,15.40
2023-03-19T10:30:33.731Z,15.40
2023-03-19T10:33:12.867Z,15.50
2023-03-19T10:35:48.933Z,15.40
2023-03-19T10:38:27.220Z,15.50
2023-03-19T10:41:22.353Z,15.50
2023-03-19T10:44:25.677Z,15.50
2023-03-19T10:46:53.022Z,15.50
2023-03-19T10:49:20.586Z,15.50
2023-03-19T10:51:49.194Z,15.50
2023-03-19T10:54:27.594Z,15.60
2023-03-19T10:57:00.228Z,15.60
2023-03-19T10:59:30.466Z,15.60
2023-03-19T11:02:04.013Z,15.60
2023-03-19T11:04:32.473Z,15.60
2023-03-19T11:07:10.902Z,15.60
2023-03-19T11:09:44.704Z,15.60
2023-03-19T11:12:34.699Z,15.50
2023-03-19T11:15:07.687Z,15.50
2023-03-19T11:17:39.632Z,15.50
2023-03-19T11:20:16.034Z,15.50
2023-03-19T11:22:43.438Z,15.50
2023-03-19T11:25:23.994Z,15.50
2023-03-19T11:28:15.190Z,15.40
2023-03-19T11:31:21.715Z,15.40
2023-03-19T11:34:08.317Z,15.40
2023-03-19T11:36:50.795Z,15.40
2023-03-19T11:39:38.098Z,15.40
2023-03-19T11:42:42.859Z,15.50
2023-03-19T11:45:22.404Z,15.40
2023-03-19T11:48:16.948Z,15.50
2023-03-19T11:50:59.418Z,15.60
2023-03-19T11:53:37.325Z,15.60
2023-03-19T11:56:23.985Z,15.70
2023-03-19T11:58:58.982Z,15.80
2023-03-19T12:01:32.331Z,15.90
2023-03-19T12:04:15.891Z,15.90
2023-03-19T12:07:14.092Z,16.00
2023-03-19T12:09:53.474Z,16.00
2023-03-19T12:12:34.077Z,16.00
2023-03-19T12:15:13.406Z,15.90
2023-03-19T12:18:04.774Z,15.80
2023-03-19T12:20:58.723Z,15.80
2023-03-19T12:24:04.148Z,15.70
2023-03-19T12:27:00.809Z,15.60
2023-03-19T12:29:31.135Z,15.50
2023-03-19T12:32:23.362Z,15.50
2023-03-19T12:34:57.900Z,15.50
2023-03-19T12:38:03.548Z,15.40
2023-03-19T12:40:56.106Z,15.30
2023-03-19T12:43:35.924Z,15.20
2023-03-19T12:46:14.679Z,15.20
2023-03-19T12:48:56.990Z,15.10
2023-03-19T12:51:30.032Z,15.00
2023-03-19T12:54:06.824Z,15.00
2023-03-19T12:56:45.016Z,14.90
2023-03-19T12:59:20.578Z,14.90
2023-03-19T13:01:52.271Z,14.80
2023-03-19T13:04:33.954Z,14.80
2023-03-19T13:07:20.538Z,14.80
2023-03-19T13:10:05.612Z,14.70
2023-03-19T13:12:37.830Z,14.70
2023-03-19T13:15:36.555Z,14.70
2023-03-19T13:18:30.774Z,14.70
2023-03-19T13:21:16.910Z,14.60
2023-03-19T13:23:47.594Z,14.60
2023-03-19T13:26:15.922Z,14.60
2023-03-19T13:29:06.392Z,14.60
2023-03-19T13:31:38.481Z,14.50
2023-03-19T13:34:28.182Z,14.60
2023-03-19T13:37:15.921Z,14.50
2023-03-19T13:39:45.678Z,14.50
2023-03-19T13:42:42.219Z,14.50
2023-03-19T13:45:39.135Z,14.50
2023-03-19T13:48:36.760Z,14.50
2023-03-19T13:51:28.244Z,14.50
2023-03-19T13:54:13.276Z,14.50
2023-03-19T13:57:01.660Z,14.50
2023-03-19T13:59:41.300Z,14.40
2023-03-19T14:02:26.465Z,14.40
2023-03-19T14:05:10.569Z,14.40
2023-03-19T14:07:41.280Z,14.40
2023-03-19T14:10:13.761Z,14.40
2023-03-19T14:12:43.316Z,14.30
2023-03-19T14:15:10.614Z,14.30
2023-03-19T14:18:13.936Z,14.30
2023-03-19T14:20:52.006Z,14.30
2023-03-19T14:23:36.171Z,14.30
2023-03-19T14:26:23.253Z,14.20
2023-03-19T14:29:06.170Z,14.20
2023-03-19T14:31:39.372Z,14.20
2023-03-19T14:34:11.449Z,14.20
2023-03-19T14:36:44.418Z,14.20
2023-03-19T14:39:27.822Z,14.10
2023-03-19T14:42:08.656Z,14.10
2023-03-19T14:45:10.230Z,14.10
2023-03-19T14:47:46.916Z,14.10
2023-03-19T14:50:55.197Z,14.00
2023-03-19T14:53:49.782Z,14.10
2023-03-19T14:56:24.086Z,14.00
2023-03-19T14:58:54.772Z,14.00
2023-03-19T15:01:27.073Z,14.00
2023-03-19T15:03:57.002Z,14.00
2023-03-19T15:06:25.171Z,14.00
2023-03-19T15:08:52.758Z,14.00
2023-03-19T15:11:48.279Z,14.00
2023-03-19T15:14:23.977Z,14.00
2023-03-19T15:17:03.870Z,14.00
2023-03-19T15:19:32.735Z,14.00
2023-03-19T15:22:12.481Z,14.00
2023-03-19T15:24:39.984Z,14.00
2023-03-19T15:27:20.738Z,14.00
2023-03-19T15:29:50.704Z,14.00
2023-03-19T15:33:02.782Z,14.00
2023-03-19T15:35:36.989Z,14.10
2023-03-19T15:38:10.053Z,14.10
2023-03-19T15:40:39.005Z,14.10
2023-03-19T15:43:11.311Z,14.10
2023-03-19T15:45:40.755Z,14.10
2023-03-19T15:48:23.667Z,14.10
2023-03-19T15:50:54.477Z,14.10
2023-03-19T15:53:26.511Z,14.10
2023-03-19T15:55:55.566Z,14.10
2023-03-19T15:58:32.715Z,14.10
2023-03-19T16:01:01.608Z,14.20
2023-03-19T16:03:43.915Z,14.10
2023-03-19T16:06:26.993Z,14.20
2023-03-19T16:08:57.047Z,14.10
2023-03-19T16:11:35.581Z,14.10
2023-03-19T16:14:23.157Z,14.10
2023-03-19T16:16:50.834Z,14.10
2023-03-19T16:19:48.042Z,14.10
2023-03-19T16:22:17.990Z,14.00
2023-03-19T16:24:47.257Z,14.00
2023-03-19T16:27:32.096Z,14.00
2023-03-19T16:30:00.706Z,14.00
2023-03-19T16:32:30.123Z,14.00
2023-03-19T16:35:20.856Z,14.00
2023-03-19T16:38:05.888Z,13.90
2023-03-19T16:40:44.175Z,13.90
2023-03-19T16:43:22.611Z,13.80
2023-03-19T16:45:52.273Z,13.80
2023-03-19T16:48:19.911Z,13.80
2023-03-19T16:50:47.686Z,13.70
2023-03-19T16:53:22.211Z,13.70
2023-03-19T16:55:49.900Z,13.70
2023-03-19T16:58:20.513Z,13.70
2023-03-19T17:00:47.957Z,13.70
2023-03-19T17:03:18.014Z,13.60
2023-03-19T17:05:46.537Z,13.60
2023-03-19T17:08:14.209Z,13.60
2023-03-19T17:10:49.348Z,13.60
2023-03-19T17:13:22.585Z,13.60
2023-03-19T17:15:51.162Z,13.60
2023-03-19T17:18:24.949Z,13.60
2023-03-19T17:20:53.603Z,13.50
2023-03-19T17:23:24.481Z,13.50
2023-03-19T17:25:53.278Z,13.50
2023-03-19T17:28:20.711Z,13.50
2023-03-19T17:30:48.299Z,13.40
2023-03-19T17:33:33.561Z,13.40
2023-03-19T17:36:01.040Z,13.40
2023-03-19T17:38:34.684Z,13.30
2023-03-19T17:41:02.554Z,13.30
2023-03-19T17:43:35.816Z,13.30
2023-03-19T17:46:03.308Z,13.20
2023-03-19T17:48:30.717Z,13.20
2023-03-19T17:51:02.316Z,13.10
2023-03-19T17:53:30.029Z,13.00
2023-03-19T17:55:57.404Z,13.00
2023-03-19T17:58:25.892Z,12.90
2023-03-19T18:00:53.725Z,12.90
2023-03-19T18:03:26.939Z,12.80
2023-03-19T18:05:54.449Z,12.80
2023-03-19T18:08:25.055Z,12.70
2023-03-19T18:10:52.486Z,12.70
2023-03-19T18:13:19.888Z,12.60
2023-03-19T18:15:47.696Z,12.60
2023-03-19T18:18:21.241Z,12.60
2023-03-19T18:20:49.225Z,12.60
2023-03-19T18:23:17.557Z,12.50
2023-03-19T18:25:46.526Z,12.50
2023-03-19T18:28:14.716Z,12.50
2023-03-19T18:30:43.501Z,12.50
2023-03-19T18:33:25.899Z,12.50
2023-03-19T18:35:55.565Z,12.50
2023-03-19T18:38:26.392Z,12.40
2023-03-19T18:40:55.751Z,12.40
2023-03-19T18:43:24.573Z,12.30
2023-03-19T18:45:53.870Z,12.30
2023-03-19T18:48:33.252Z,12.20
2023-03-19T18:51:02.538Z,12.20
2023-03-19T18:53:30.358Z,12.10
2023-03-19T18:55:57.962Z,12.10
2023-03-19T18:58:28.385Z,12.10
2023-03-19T19:00:55.950Z,12.00
2023-03-19T19:03:28.843Z,12.00
2023-03-19T19:05:56.530Z,11.90
2023-03-19T19:08:26.999Z,11.90
2023-03-19T19:10:59.236Z,11.90
2023-03-19T19:13:30.820Z,11.80
2023-03-19T19:15:58.356Z,11.70
2023-03-19T19:18:30.860Z,11.70
2023-03-19T19:20:58.662Z,11.70
2023-03-19T19:23:27.518Z,11.60
2023-03-19T19:25:55.499Z,11.60
2023-03-19T19:28:22.904Z,11.50
2023-03-19T19:30:50.829Z,11.50
2023-03-19T19:33:21.189Z,11.40
2023-03-19T19:35:49.028Z,11.40
2023-03-19T19:38:16.494Z,11.40
2023-03-19T19:40:46.094Z,11.30
2023-03-19T19:43:25.253Z,11.30
2023-03-19T19:45:54.639Z,11.30
2023-03-19T19:48:27.694Z,11.20
2023-03-19T19:50:56.803Z,11.20
2023-03-19T19:53:26.375Z,11.10
2023-03-19T19:55:54.272Z,11.20
2023-03-19T19:58:31.217Z,11.10
2023-03-19T20:01:08.494Z,11.10
2023-03-19T20:03:36.195Z,11.10
2023-03-19T20:06:04.025Z,11.00
2023-03-19T20:08:31.436Z,11.00
2023-03-19T20:10:58.976Z,11.00
2023-03-19T20:13:26.289Z,11.00
2023-03-19T20:15:55.937Z,11.00
2023-03-19T20:18:25.078Z,11.00
2023-03-19T20:20:53.087Z,10.90
2023-03-19T20:23:21.005Z,11.00
2023-03-19T20:25:49.086Z,11.00
2023-03-19T20:28:24.083Z,10.90
2023-03-19T20:30:54.118Z,10.90
2023-03-19T20:33:22.648Z,10.90
2023-03-19T20:35:50.532Z,10.90
2023-03-19T20:38:18.161Z,10.90
2023-03-19T20:40:57.036Z,10.90
2023-03-19T20:43:30.537Z,10.90
2023-03-19T20:46:01.969Z,10.90
2023-03-19T20:48:31.123Z,10.90
2023-03-19T20:50:59.793Z,10.90
2023-03-19T20:53:27.803Z,10.90
2023-03-19T20:55:55.389Z,10.80
2023-03-19T20:58:39.232Z,10.80
2023-03-19T21:01:06.885Z,10.80
2023-03-19T21:03:34.225Z,10.80
2023-03-19T21:06:04.780Z,10.70
2023-03-19T21:08:37.392Z,10.70
2023-03-19T21:11:05.211Z,10.70
2023-03-19T21:13:32.470Z,10.70
2023-03-19T21:16:00.289Z,10.60
2023-03-19T21:18:28.107Z,10.60
2023-03-19T21:20:58.152Z,10.60
2023-03-19T21:23:34.909Z,10.60
2023-03-19T21:26:11.715Z,10.50
2023-03-19T21:28:40.505Z,10.50
2023-03-19T21:31:18.121Z,10.50
2023-03-19T21:33:47.801Z,10.50
2023-03-19T21:36:16.034Z,10.50
2023-03-19T21:38:44.044Z,10.50
2023-03-19T21:41:25.029Z,10.50
2023-03-19T21:43:57.576Z,10.50
2023-03-19T21:46:27.830Z,10.50
2023-03-19T21:48:56.934Z,10.50
2023-03-19T21:51:25.792Z,10.50
2023-03-19T21:53:53.166Z,10.50
2023-03-19T21:56:32.736Z,10.50
2023-03-19T21:59:09.974Z,10.50
2023-03-19T22:01:37.264Z,10.50
2023-03-19T22:04:04.676Z,10.50
2023-03-19T22:06:32.928Z,10.50
2023-03-19T22:09:00.466Z,10.60
2023-03-19T22:11:30.698Z,10.60
2023-03-19T22:14:15.141Z,10.50
2023-03-19T22:16:42.708Z,10.50
2023-03-19T22:19:14.736Z,10.50
2023-03-19T22:21:42.112Z,10.50
2023-03-19T22:24:09.457Z,10.60
2023-03-19T22:26:39.759Z,10.50
2023-03-19T22:29:22.972Z,10.50
2023-03-19T22:31:52.190Z,10.50
2023-03-19T22:34:22.249Z,10.50
2023-03-19T22:36:49.972Z,10.50
2023-03-19T22:39:17.382Z,10.50
2023-03-19T22:41:48.024Z,10.50
2023-03-19T22:44:35.559Z,10.50
2023-03-19T22:47:05.909Z,10.50
2023-03-19T22:49:33.585Z,10.50
2023-03-19T22:52:01.057Z,10.50
2023-03-19T22:54:28.421Z,10.50
2023-03-19T22:56:57.155Z,10.50
2023-03-19T22:59:25.597Z,10.50
2023-03-19T23:01:52.877Z,10.50
2023-03-19T23:04:27.614Z,10.50
2023-03-19T23:07:03.263Z,10.50
2023-03-19T23:09:33.884Z,10.40
2023-03-19T23:12:03.379Z,10.50
2023-03-19T23:14:31.647Z,10.40
2023-03-19T23:17:07.537Z,10.40
2023-03-19T23:19:36.732Z,10.50
2023-03-19T23:22:06.416Z,10.40
2023-03-19T23:24:34.304Z,10.40
2023-03-19T23:27:02.532Z,10.40
2023-03-19T23:29:43.903Z,10.40
2023-03-19T23:32:11.703Z,10.40
2023-03-19T23:34:53.632Z,10.40
2023-03-19T23:37:25.263Z,10.50
2023-03-19T23:39:53.748Z,10.50
2023-03-19T23:42:27.917Z,10.50
2023-03-19T23:44:58.557Z,10.50
2023-03-19T23:47:26.380Z,10.50
2023-03-19T23:49:53.675Z,10.50
2023-03-19T23:52:20.952Z,10.50
2023-03-19T23:54:48.633Z,10.50
2023-03-19T23:57:17.442Z,10.50
2023-03-19T23:59:48.128Z,10.50
